Terminal Aerodrome Forecast
Issued by NWS

Current Version | Previous Version | Text Only | Print | Product List | Glossary On
Versions: 1 2 3 4 5 6 7 8 9 10 11 12
000
FTUS42 TJSJ 010500
TAFNCM
TAF
TNCM 010524Z 0106/0206 11007KT P6SM FEW019
     FM011330 12011KT P6SM VCSH SCT022
     FM012300 11008KT P6SM FEW021=

USA.gov is the U.S. government's official web portal to all federal, state and local government web resources and services.